Time;durP1;ratioP1;P1;durP2;ratioP2;P2;SDS_P1;SDS_P2;PMS_P1;PMS_P2;Temp;Humidity;BMP_temperature;BMP_pressure;BME280_temperature;BME280_humidity;BME280_pressure;Samples;Min_cycle;Max_cycle;Signal;HPM_P1;HPM_P2
2022/03/22 00:00:17;;;;;;;21.07;15.67;;;10.80;94.10;;;;;;5034244;28;20414;-68
2022/03/22 00:02:42;;;;;;;18.57;15.10;;;10.80;94.10;;;;;;5033749;28;20421;-68
2022/03/22 00:05:08;;;;;;;19.13;15.37;;;10.80;94.00;;;;;;5033639;28;20185;-68
2022/03/22 00:07:34;;;;;;;17.13;13.80;;;10.80;93.90;;;;;;5033484;28;20603;-67
2022/03/22 00:09:59;;;;;;;21.30;16.27;;;10.80;93.70;;;;;;5033306;28;20608;-68
2022/03/22 00:12:26;;;;;;;16.30;13.67;;;10.80;93.90;;;;;;5032032;28;20214;-70
2022/03/22 00:14:51;;;;;;;21.77;15.97;;;10.70;93.80;;;;;;5032684;28;20530;-68
2022/03/22 00:17:17;;;;;;;19.83;14.50;;;10.70;93.70;;;;;;5032189;28;20530;-68
2022/03/22 00:19:42;;;;;;;21.13;15.70;;;10.70;93.40;;;;;;5032228;28;20451;-68
2022/03/22 00:22:11;;;;;;;22.00;14.87;;;10.70;93.40;;;;;;5031647;28;20209;-69
2022/03/22 00:24:37;;;;;;;19.37;15.93;;;10.70;93.90;;;;;;5031845;28;20261;-68
2022/03/22 00:27:02;;;;;;;17.53;13.77;;;10.60;93.50;;;;;;5032310;28;20500;-70
2022/03/22 00:29:28;;;;;;;22.97;15.13;;;10.60;93.00;;;;;;5031928;28;20186;-67
2022/03/22 00:31:56;;;;;;;22.93;15.90;;;10.60;93.20;;;;;;5031864;28;20199;-68
2022/03/22 00:34:23;;;;;;;19.00;14.30;;;10.60;93.60;;;;;;5031972;28;20167;-67
2022/03/22 00:36:49;;;;;;;23.27;15.70;;;10.60;93.40;;;;;;5014104;28;20540;-69
2022/03/22 00:39:16;;;;;;;18.80;15.37;;;10.60;93.60;;;;;;5032179;28;20414;-69
2022/03/22 00:41:41;;;;;;;20.97;16.27;;;10.50;93.80;;;;;;5031733;28;20887;-68
2022/03/22 00:44:08;;;;;;;19.23;15.33;;;10.40;94.10;;;;;;5031859;28;20421;-69
2022/03/22 00:46:35;;;;;;;22.57;14.30;;;10.40;94.40;;;;;;5015446;28;20204;-68
2022/03/22 00:49:02;;;;;;;17.73;15.03;;;10.30;94.60;;;;;;5018218;28;20444;-68
2022/03/22 00:51:28;;;;;;;18.57;15.10;;;10.20;94.60;;;;;;5035782;28;20445;-68
2022/03/22 00:53:53;;;;;;;19.53;15.97;;;10.20;95.20;;;;;;5035737;28;20417;-69
2022/03/22 00:56:19;;;;;;;21.90;15.57;;;10.10;95.40;;;;;;5035757;28;20556;-69
2022/03/22 00:58:45;;;;;;;24.17;15.83;;;10.10;95.60;;;;;;5035682;28;20616;-68
2022/03/22 01:01:10;;;;;;;21.90;15.60;;;10.00;95.70;;;;;;5035571;28;20682;-68
2022/03/22 01:03:36;;;;;;;19.17;14.97;;;10.00;95.80;;;;;;5035165;28;20620;-68
2022/03/22 01:06:01;;;;;;;17.77;14.40;;;10.00;95.90;;;;;;5035425;28;20171;-68
2022/03/22 01:08:30;;;;;;;19.73;14.70;;;9.90;96.90;;;;;;5035368;28;20186;-68
2022/03/22 01:10:56;;;;;;;20.27;14.27;;;9.80;97.10;;;;;;5035164;28;20226;-69
2022/03/22 01:13:23;;;;;;;17.07;14.33;;;9.80;97.40;;;;;;5035058;28;20906;-69
2022/03/22 01:15:49;;;;;;;20.07;15.10;;;9.80;97.10;;;;;;5035284;28;20570;-69
2022/03/22 01:18:15;;;;;;;18.50;15.07;;;9.70;96.90;;;;;;5034975;28;20977;-68
2022/03/22 01:20:43;;;;;;;19.10;15.00;;;9.70;96.80;;;;;;5035495;28;20409;-68
2022/03/22 01:23:10;;;;;;;18.27;14.77;;;9.70;96.90;;;;;;5034976;28;20578;-69
2022/03/22 01:25:37;;;;;;;22.00;16.53;;;9.60;96.90;;;;;;5036811;28;20420;-68
2022/03/22 01:28:05;;;;;;;22.33;15.67;;;9.70;97.50;;;;;;5036772;28;20420;-67
2022/03/22 01:30:31;;;;;;;17.73;14.53;;;9.70;97.40;;;;;;5035113;28;20409;-70
2022/03/22 01:32:57;;;;;;;20.23;15.20;;;9.70;97.10;;;;;;5034260;28;20432;-67
2022/03/22 01:35:25;;;;;;;16.50;14.10;;;9.60;97.10;;;;;;5017218;28;20858;-68
2022/03/22 01:37:51;;;;;;;18.43;15.17;;;9.70;97.10;;;;;;5017141;28;20497;-69
2022/03/22 01:40:19;;;;;;;17.90;14.67;;;9.70;97.50;;;;;;5035075;28;20418;-69
2022/03/22 01:42:45;;;;;;;19.97;14.43;;;9.70;97.50;;;;;;5034780;28;20430;-68
2022/03/22 01:45:11;;;;;;;22.57;15.90;;;9.70;98.00;;;;;;5034533;28;20448;-68
2022/03/22 01:47:38;;;;;;;19.43;15.37;;;9.70;97.70;;;;;;5017393;28;20815;-68
2022/03/22 01:50:05;;;;;;;21.13;15.60;;;9.70;97.80;;;;;;5034557;28;20425;-69
2022/03/22 01:52:34;;;;;;;24.67;16.30;;;9.70;98.50;;;;;;5034009;28;20459;-68
2022/03/22 01:55:01;;;;;;;21.43;16.50;;;9.60;99.00;;;;;;5034478;28;20420;-69
2022/03/22 01:57:30;;;;;;;20.77;15.40;;;9.60;98.70;;;;;;5033928;28;20464;-68
2022/03/22 01:59:56;;;;;;;18.47;15.30;;;9.60;98.90;;;;;;5033866;28;20417;-69
2022/03/22 02:07:54;;;;;;;18.80;15.93;;;9.70;99.90;;;;;;5034103;28;20451;-68
2022/03/22 02:10:19;;;;;;;17.60;15.60;;;9.70;99.90;;;;;;5034439;28;20428;-68
2022/03/22 02:12:46;;;;;;;19.97;16.13;;;9.70;99.90;;;;;;5034138;28;20485;-67
2022/03/22 02:15:12;;;;;;;18.47;16.00;;;9.70;99.90;;;;;;5034141;28;20178;-67
2022/03/22 02:17:39;;;;;;;20.43;15.53;;;9.70;99.90;;;;;;5034267;28;20564;-67
2022/03/22 02:20:05;;;;;;;17.57;15.40;;;9.70;99.80;;;;;;5034407;28;20497;-69
2022/03/22 02:22:49;;;;;;;17.63;15.27;;;9.70;99.90;;;;;;5016002;28;20517;-68
2022/03/22 02:25:15;;;;;;;17.57;15.60;;;9.70;99.70;;;;;;5034824;28;20401;-68
2022/03/22 02:27:44;;;;;;;24.03;16.33;;;9.70;99.20;;;;;;5016290;28;20422;-68
2022/03/22 02:30:13;;;;;;;21.37;16.57;;;9.60;99.10;;;;;;5034131;28;20421;-68
2022/03/22 02:32:40;;;;;;;22.27;17.07;;;9.60;99.30;;;;;;5033424;28;20922;-69
2022/03/22 02:35:07;;;;;;;21.10;15.83;;;9.60;99.40;;;;;;5033693;28;20414;-68
2022/03/22 02:37:32;;;;;;;21.67;16.77;;;9.60;99.40;;;;;;5033693;28;20457;-69
2022/03/22 02:39:58;;;;;;;17.77;15.70;;;9.60;99.40;;;;;;5016401;28;20475;-69
2022/03/22 02:42:23;;;;;;;20.60;15.90;;;9.70;99.30;;;;;;5033491;28;20253;-68
2022/03/22 02:44:49;;;;;;;18.73;15.63;;;9.70;99.20;;;;;;5033492;28;20811;-69
2022/03/22 02:47:14;;;;;;;18.10;15.57;;;9.60;99.10;;;;;;5033675;28;20183;-68
2022/03/22 02:49:40;;;;;;;20.37;16.47;;;9.60;99.00;;;;;;5033855;28;20214;-68
2022/03/22 02:52:06;;;;;;;18.07;15.60;;;9.50;99.10;;;;;;5033380;28;20258;-69
2022/03/22 02:54:31;;;;;;;19.83;15.37;;;9.50;99.20;;;;;;5033896;28;20173;-68
2022/03/22 02:56:57;;;;;;;19.23;15.20;;;9.50;99.00;;;;;;5033636;28;20460;-68
2022/03/22 02:59:23;;;;;;;19.20;15.47;;;9.50;99.00;;;;;;5033734;28;20174;-68
2022/03/22 03:01:48;;;;;;;19.63;15.20;;;9.50;98.90;;;;;;5033327;28;20191;-69
2022/03/22 03:04:14;;;;;;;20.50;15.10;;;9.40;99.00;;;;;;5033701;28;20171;-68
2022/03/22 03:06:39;;;;;;;18.60;14.53;;;9.50;99.00;;;;;;5035111;28;20277;-68
2022/03/22 03:09:05;;;;;;;19.40;15.43;;;9.40;99.00;;;;;;5044795;28;20204;-68
2022/03/22 03:11:30;;;;;;;20.10;15.63;;;9.40;99.00;;;;;;5033868;28;20224;-68
2022/03/22 03:14:56;;;;;;;19.53;16.20;;;9.40;98.90;;;;;;5035375;28;20185;-69
2022/03/22 03:16:52;;;;;;;17.30;13.93;;;9.40;99.20;;;;;;5029158;28;20741;-69
2022/03/22 03:19:17;;;;;;;23.27;14.47;;;9.30;99.20;;;;;;5033767;28;20408;-68
2022/03/22 03:21:43;;;;;;;23.00;16.10;;;9.30;99.30;;;;;;5032999;28;20575;-69
2022/03/22 03:24:10;;;;;;;19.37;14.67;;;9.30;99.20;;;;;;5033295;28;20187;-68
2022/03/22 03:26:35;;;;;;;17.77;15.63;;;9.20;98.90;;;;;;5032999;28;20170;-69
2022/03/22 03:29:00;;;;;;;18.27;14.23;;;9.30;98.90;;;;;;5032930;28;20405;-69
2022/03/22 03:31:26;;;;;;;25.03;17.20;;;9.20;98.90;;;;;;5015095;28;20327;-68
2022/03/22 03:33:53;;;;;;;18.30;15.50;;;9.20;99.20;;;;;;5032060;28;20189;-68
2022/03/22 03:36:18;;;;;;;20.87;15.73;;;9.10;99.30;;;;;;5032637;28;20166;-68
2022/03/22 03:38:44;;;;;;;17.97;14.63;;;9.10;99.40;;;;;;5032410;28;20520;-68
2022/03/22 03:43:56;;;;;;;18.57;15.73;;;9.10;99.20;;;;;;5032306;28;20248;-68
2022/03/22 03:49:08;;;;;;;20.60;15.77;;;9.10;99.10;;;;;;5033917;28;20408;-67
2022/03/22 03:51:35;;;;;;;19.30;14.60;;;9.10;98.90;;;;;;5032062;28;20426;-66
2022/03/22 03:54:01;;;;;;;17.47;14.53;;;9.10;98.90;;;;;;5032254;28;20174;-67
2022/03/22 03:56:27;;;;;;;19.30;15.00;;;8.90;99.00;;;;;;5032097;28;20441;-67
2022/03/22 03:58:54;;;;;;;20.67;14.23;;;8.90;98.90;;;;;;5032409;28;20773;-67
2022/03/22 04:01:21;;;;;;;17.70;14.70;;;8.70;99.00;;;;;;5031953;28;20234;-70
2022/03/22 04:03:47;;;;;;;24.00;15.27;;;8.70;99.30;;;;;;5032013;28;20493;-67
2022/03/22 04:06:13;;;;;;;18.50;15.53;;;8.70;99.50;;;;;;5031998;28;20408;-67
2022/03/22 04:08:39;;;;;;;19.63;14.70;;;8.70;99.80;;;;;;5031595;28;20908;-68
2022/03/22 04:11:04;;;;;;;17.67;14.60;;;8.60;99.60;;;;;;5032071;28;20219;-68
2022/03/22 04:13:30;;;;;;;21.23;15.73;;;8.60;99.50;;;;;;5069386;23;20673;-71
2022/03/22 04:15:55;;;;;;;18.73;15.00;;;8.70;99.50;;;;;;5051626;28;20176;-71
2022/03/22 04:18:21;;;;;;;19.47;15.97;;;8.70;99.30;;;;;;5051963;28;20351;-70
2022/03/22 04:20:47;;;;;;;20.47;14.10;;;8.80;99.40;;;;;;5052836;28;20299;-70
2022/03/22 04:23:14;;;;;;;21.27;14.27;;;8.70;98.70;;;;;;5057990;28;20185;-71
2022/03/22 04:25:40;;;;;;;21.23;17.60;;;8.80;98.60;;;;;;5057981;28;20779;-70
2022/03/22 04:33:34;;;;;;;16.20;13.93;;;8.80;99.10;;;;;;5058104;28;20441;-70
2022/03/22 04:36:00;;;;;;;18.50;14.03;;;8.80;98.70;;;;;;5057490;28;20415;-70
2022/03/22 04:38:25;;;;;;;18.40;14.80;;;8.60;98.70;;;;;;5058090;28;20451;-70
2022/03/22 04:40:51;;;;;;;18.40;14.90;;;8.60;98.60;;;;;;5058213;28;20412;-70
2022/03/22 04:43:16;;;;;;;16.60;14.30;;;8.60;98.80;;;;;;5057738;28;20190;-70
2022/03/22 04:45:42;;;;;;;19.20;15.10;;;8.70;98.60;;;;;;5057952;28;20169;-69
2022/03/22 04:48:07;;;;;;;17.63;14.30;;;8.70;98.30;;;;;;5058227;28;20181;-70
2022/03/22 04:50:33;;;;;;;21.97;14.87;;;8.70;98.10;;;;;;5058191;28;20196;-70
2022/03/22 04:58:27;;;;;;;17.53;13.87;;;8.60;97.90;;;;;;5057749;28;20463;-70
2022/03/22 05:00:52;;;;;;;16.13;14.03;;;8.60;97.80;;;;;;5057553;28;20415;-71
2022/03/22 05:03:18;;;;;;;18.40;14.70;;;8.60;97.80;;;;;;5057488;28;20190;-69
2022/03/22 05:08:27;;;;;;;18.10;14.77;;;8.50;98.20;;;;;;5057927;28;20419;-70
2022/03/22 05:10:55;;;;;;;15.30;13.37;;;8.50;98.00;;;;;;5057905;28;20416;-69
2022/03/22 05:13:20;;;;;;;18.27;14.13;;;8.40;97.80;;;;;;5057376;28;20673;-70
2022/03/22 05:15:47;;;;;;;15.40;13.40;;;8.50;97.90;;;;;;5057858;28;20442;-70
2022/03/22 05:18:13;;;;;;;18.10;13.50;;;8.50;97.80;;;;;;5057623;28;20205;-70
2022/03/22 05:20:38;;;;;;;16.77;13.10;;;8.50;97.60;;;;;;5057510;28;20424;-70
2022/03/22 05:23:04;;;;;;;20.13;13.83;;;8.40;97.70;;;;;;5056157;28;20201;-69
2022/03/22 05:25:31;;;;;;;23.80;14.30;;;8.50;97.90;;;;;;5064702;28;20633;-69
2022/03/22 05:28:02;;;;;;;17.40;13.90;;;8.50;97.80;;;;;;5064058;28;20202;-68
2022/03/22 05:30:28;;;;;;;18.47;14.10;;;8.40;97.70;;;;;;5067217;28;20464;-70
2022/03/22 05:32:53;;;;;;;21.60;14.17;;;8.40;97.80;;;;;;5067687;28;20505;-69
2022/03/22 05:35:19;;;;;;;20.13;14.03;;;8.50;97.90;;;;;;5066870;28;20467;-70
2022/03/22 05:37:44;;;;;;;15.20;13.40;;;8.40;97.90;;;;;;5065091;28;20280;-70
2022/03/22 05:40:10;;;;;;;20.77;14.53;;;8.40;98.10;;;;;;5057487;28;20227;-70
2022/03/22 05:42:42;;;;;;;18.67;14.17;;;8.40;98.00;;;;;;5055524;28;20216;-70
2022/03/22 05:45:09;;;;;;;19.20;14.50;;;8.50;98.00;;;;;;5053865;28;20208;-69
2022/03/22 05:47:34;;;;;;;16.73;14.27;;;8.30;97.80;;;;;;5035337;28;20434;-69
2022/03/22 05:50:00;;;;;;;19.90;14.30;;;8.40;98.10;;;;;;5053796;28;20496;-70
2022/03/22 05:52:26;;;;;;;17.10;14.50;;;8.40;98.00;;;;;;5035831;28;20201;-70
2022/03/22 05:54:51;;;;;;;19.40;14.37;;;8.40;98.00;;;;;;5053997;28;20225;-70
2022/03/22 05:57:17;;;;;;;16.70;14.27;;;8.40;98.00;;;;;;5053875;28;20631;-70
2022/03/22 05:59:42;;;;;;;17.87;15.03;;;8.40;98.00;;;;;;5053957;28;20194;-71
2022/03/22 06:02:09;;;;;;;18.60;14.47;;;8.50;98.10;;;;;;5053663;28;20248;-71
2022/03/22 06:04:34;;;;;;;19.83;13.93;;;8.50;98.10;;;;;;5053663;28;20176;-71
2022/03/22 06:07:01;;;;;;;19.60;14.83;;;8.50;98.00;;;;;;5053601;28;20418;-70
2022/03/22 06:09:26;;;;;;;19.17;14.53;;;8.50;98.20;;;;;;5053741;28;20177;-71
2022/03/22 06:11:52;;;;;;;16.50;13.70;;;8.50;98.20;;;;;;5053342;28;20908;-70
2022/03/22 06:14:17;;;;;;;19.27;14.80;;;8.50;98.50;;;;;;5054160;28;20413;-70
2022/03/22 06:16:43;;;;;;;23.87;15.93;;;8.50;98.50;;;;;;5053454;28;20285;-70
2022/03/22 06:19:08;;;;;;;20.33;16.27;;;8.50;98.70;;;;;;5053845;28;20178;-70
2022/03/22 06:21:34;;;;;;;17.87;14.97;;;8.50;98.70;;;;;;5053083;28;20172;-70
2022/03/22 06:24:00;;;;;;;18.80;15.83;;;8.60;98.80;;;;;;5053287;28;20525;-70
2022/03/22 06:26:25;;;;;;;22.20;15.93;;;8.60;98.70;;;;;;5053436;28;20205;-70
2022/03/22 06:28:51;;;;;;;19.63;16.10;;;8.60;98.70;;;;;;5053330;28;20170;-70
2022/03/22 06:31:16;;;;;;;24.50;15.67;;;8.60;98.70;;;;;;5053021;28;20540;-70
2022/03/22 06:33:42;;;;;;;19.80;15.50;;;8.70;98.50;;;;;;5035378;28;20564;-70
2022/03/22 06:36:08;;;;;;;19.70;15.30;;;8.80;98.40;;;;;;5053115;28;20170;-69
2022/03/22 06:38:37;;;;;;;18.00;16.10;;;8.80;98.20;;;;;;5053231;28;20236;-69
2022/03/22 06:41:03;;;;;;;17.20;14.33;;;8.80;98.10;;;;;;5053464;28;20408;-69
2022/03/22 06:43:29;;;;;;;19.33;14.87;;;8.90;98.00;;;;;;5052836;28;20417;-70
2022/03/22 06:45:55;;;;;;;22.50;14.93;;;8.90;98.00;;;;;;5053164;28;20408;-71
2022/03/22 06:48:22;;;;;;;17.17;14.93;;;8.90;97.80;;;;;;5053124;28;20795;-70
2022/03/22 06:50:49;;;;;;;22.40;16.13;;;9.00;97.70;;;;;;5052900;28;20173;-70
2022/03/22 06:53:15;;;;;;;20.40;15.70;;;9.00;97.60;;;;;;5052596;28;20508;-70
2022/03/22 06:55:41;;;;;;;19.80;15.90;;;9.10;97.50;;;;;;5052639;28;20447;-70
2022/03/22 06:58:07;;;;;;;20.47;15.20;;;9.20;97.20;;;;;;5052746;28;20993;-70
2022/03/22 07:00:33;;;;;;;19.20;15.23;;;9.20;96.60;;;;;;5052741;28;20397;-70
2022/03/22 07:03:01;;;;;;;18.37;14.90;;;9.30;96.30;;;;;;5054222;28;20467;-70
2022/03/22 07:05:27;;;;;;;20.10;16.27;;;9.40;96.10;;;;;;5053724;28;20416;-70
2022/03/22 07:07:52;;;;;;;19.80;15.73;;;9.40;95.90;;;;;;5052431;28;20905;-69
2022/03/22 07:10:19;;;;;;;16.60;13.83;;;9.50;95.80;;;;;;5053085;28;20408;-69
2022/03/22 07:13:03;;;;;;;19.40;14.37;;;9.60;95.60;;;;;;5052944;28;20245;-69
2022/03/22 07:15:31;;;;;;;23.00;16.47;;;9.70;95.50;;;;;;5053998;28;20564;-71
2022/03/22 07:17:58;;;;;;;19.77;15.33;;;9.70;95.20;;;;;;5054203;28;20953;-69
2022/03/22 07:20:24;;;;;;;22.43;14.70;;;9.80;95.00;;;;;;5053937;28;20401;-69
2022/03/22 07:22:50;;;;;;;20.33;15.90;;;9.90;94.60;;;;;;5052310;28;20417;-69
2022/03/22 07:25:17;;;;;;;17.70;15.53;;;9.90;94.10;;;;;;5034504;28;20420;-70
2022/03/22 07:27:42;;;;;;;21.17;15.73;;;10.00;93.10;;;;;;5052512;28;20415;-71
2022/03/22 07:30:10;;;;;;;20.27;16.00;;;10.00;92.70;;;;;;5052455;28;20492;-70
2022/03/22 07:32:37;;;;;;;22.60;16.47;;;10.10;92.60;;;;;;5034157;28;20607;-70
2022/03/22 07:35:03;;;;;;;19.40;15.17;;;10.20;92.40;;;;;;5052564;28;20420;-70
2022/03/22 07:37:29;;;;;;;19.17;15.13;;;10.30;92.20;;;;;;5053350;28;20483;-70
2022/03/22 07:39:57;;;;;;;21.40;15.23;;;10.30;91.80;;;;;;5053265;28;20413;-70
2022/03/22 07:42:24;;;;;;;16.77;15.00;;;10.40;91.60;;;;;;5054400;28;20208;-70
2022/03/22 07:44:50;;;;;;;17.60;13.87;;;10.50;91.50;;;;;;5037531;28;20421;-70
2022/03/22 07:47:15;;;;;;;20.90;14.63;;;10.60;91.20;;;;;;5055393;28;20400;-70
2022/03/22 07:55:10;;;;;;;16.23;14.10;;;11.00;90.60;;;;;;5054425;28;20415;-68
2022/03/22 07:57:36;;;;;;;16.77;15.00;;;11.10;90.40;;;;;;5053415;28;20514;-71
2022/03/22 08:00:04;;;;;;;18.40;14.23;;;11.20;90.10;;;;;;5055025;28;20490;-70
2022/03/22 08:02:29;;;;;;;19.63;14.90;;;11.30;90.00;;;;;;5053837;28;20209;-70
2022/03/22 08:04:55;;;;;;;18.20;15.50;;;11.30;89.30;;;;;;5053700;28;20393;-70
2022/03/22 08:07:20;;;;;;;16.30;14.60;;;11.40;89.10;;;;;;5052798;28;20182;-69
2022/03/22 08:09:46;;;;;;;20.20;15.87;;;11.50;88.50;;;;;;5054827;28;20178;-70
2022/03/22 08:12:12;;;;;;;19.87;15.03;;;11.60;88.40;;;;;;5051497;28;20241;-70
2022/03/22 08:14:38;;;;;;;16.23;13.20;;;11.70;87.80;;;;;;5051996;28;20588;-69
2022/03/22 08:17:04;;;;;;;17.13;14.67;;;11.90;87.70;;;;;;5033660;28;20448;-69
2022/03/22 08:19:29;;;;;;;17.40;14.57;;;12.00;87.70;;;;;;5051760;28;20198;-68
2022/03/22 08:21:55;;;;;;;15.37;13.63;;;12.10;87.10;;;;;;5051640;28;20460;-69
2022/03/22 08:24:22;;;;;;;18.00;14.70;;;12.20;86.60;;;;;;5053810;28;20619;-69
2022/03/22 08:26:48;;;;;;;16.20;13.70;;;12.30;84.10;;;;;;5053720;28;20775;-72
2022/03/22 08:29:14;;;;;;;16.20;13.40;;;12.40;83.80;;;;;;5036049;28;20429;-69
2022/03/22 08:31:40;;;;;;;17.10;13.97;;;12.50;82.80;;;;;;5053025;28;20409;-69
2022/03/22 08:34:05;;;;;;;13.50;12.03;;;12.60;80.10;;;;;;5055256;28;20409;-69
2022/03/22 08:36:33;;;;;;;14.17;11.80;;;12.70;78.80;;;;;;5052623;28;20537;-70
2022/03/22 08:38:59;;;;;;;14.70;12.73;;;12.80;75.10;;;;;;5034008;28;20170;-70
2022/03/22 08:41:24;;;;;;;13.60;11.23;;;12.90;73.50;;;;;;5052397;28;20412;-70
2022/03/22 08:43:52;;;;;;;14.67;10.80;;;12.90;72.50;;;;;;5051487;28;20432;-71
2022/03/22 08:46:20;;;;;;;11.03;9.77;;;13.00;71.00;;;;;;5053138;28;20193;-71
2022/03/22 08:48:47;;;;;;;11.77;10.47;;;13.20;69.60;;;;;;5035148;28;20424;-70
2022/03/22 08:51:13;;;;;;;11.97;10.23;;;13.30;65.30;;;;;;5034916;28;20953;-70
2022/03/22 08:53:39;;;;;;;12.37;9.53;;;13.30;65.80;;;;;;5018315;28;20493;-69
2022/03/22 08:56:04;;;;;;;12.80;11.00;;;13.40;65.30;;;;;;5052309;28;21088;-70
2022/03/22 08:58:30;;;;;;;13.30;10.13;;;13.50;66.00;;;;;;5053263;28;20202;-70
2022/03/22 09:00:56;;;;;;;12.43;9.90;;;13.60;65.20;;;;;;5054357;28;20177;-70
2022/03/22 09:03:22;;;;;;;11.53;10.33;;;13.70;63.80;;;;;;5053362;28;20178;-70
2022/03/22 09:08:33;;;;;;;11.40;10.17;;;13.90;60.00;;;;;;5055062;28;20928;-70
2022/03/22 09:10:58;;;;;;;11.27;9.70;;;14.00;59.00;;;;;;5056568;28;20413;-70
2022/03/22 09:13:26;;;;;;;13.73;10.87;;;14.10;57.70;;;;;;5055568;28;20217;-70
2022/03/22 09:15:52;;;;;;;11.00;9.80;;;14.20;56.60;;;;;;5057044;28;20174;-69
2022/03/22 09:18:18;;;;;;;13.83;10.73;;;14.30;56.50;;;;;;5055417;28;21050;-70
2022/03/22 09:20:45;;;;;;;12.20;10.90;;;14.40;55.80;;;;;;5055447;28;20436;-70
2022/03/22 09:23:12;;;;;;;11.10;10.00;;;14.50;55.80;;;;;;5054461;28;20190;-71
2022/03/22 09:25:39;;;;;;;13.43;10.67;;;14.50;55.20;;;;;;5055008;28;20422;-69
2022/03/22 09:28:06;;;;;;;10.80;9.73;;;14.70;55.30;;;;;;5055106;28;20499;-71
2022/03/22 09:30:33;;;;;;;11.40;10.20;;;14.80;54.80;;;;;;5054758;28;20894;-70
2022/03/22 09:32:58;;;;;;;11.53;10.33;;;14.90;54.60;;;;;;5054221;28;20817;-70
2022/03/22 09:35:24;;;;;;;10.20;9.20;;;15.00;54.60;;;;;;5054495;28;20500;-69
2022/03/22 09:37:50;;;;;;;13.70;11.17;;;15.10;54.60;;;;;;5054531;28;20205;-70
2022/03/22 09:40:18;;;;;;;15.33;11.40;;;15.20;54.20;;;;;;5054445;28;20410;-69
2022/03/22 09:42:46;;;;;;;11.30;9.87;;;15.30;54.70;;;;;;5054444;28;20429;-70
2022/03/22 09:45:17;;;;;;;12.27;10.50;;;15.40;54.90;;;;;;5037077;28;20830;-70
2022/03/22 09:47:44;;;;;;;13.50;10.83;;;15.50;54.40;;;;;;5054696;28;20438;-70
2022/03/22 09:50:11;;;;;;;12.57;9.53;;;15.50;52.50;;;;;;5054510;28;20424;-71
2022/03/22 09:52:37;;;;;;;12.10;10.10;;;15.60;54.10;;;;;;5054154;28;20954;-70
2022/03/22 09:55:05;;;;;;;12.60;9.77;;;15.70;54.00;;;;;;5054020;28;20503;-68
2022/03/22 09:57:30;;;;;;;11.53;10.33;;;15.90;53.30;;;;;;5053802;28;20461;-70
2022/03/22 09:59:56;;;;;;;11.70;10.50;;;16.00;53.10;;;;;;5054264;28;20420;-70
2022/03/22 10:02:29;;;;;;;15.03;11.20;;;16.10;52.00;;;;;;5053792;28;20186;-69
2022/03/22 10:04:55;;;;;;;11.03;9.93;;;16.00;51.20;;;;;;5053929;28;20162;-70
2022/03/22 10:07:22;;;;;;;15.27;9.90;;;16.00;51.50;;;;;;5053992;28;20440;-69
2022/03/22 10:09:56;;;;;;;12.20;10.90;;;16.10;51.80;;;;;;5036127;28;20257;-69
2022/03/22 10:12:34;;;;;;;11.27;10.10;;;16.10;51.60;;;;;;5071235;22;20931;-68
2022/03/22 10:15:08;;;;;;;15.37;12.07;;;16.30;51.70;;;;;;5035035;28;20914;-68
2022/03/22 10:17:33;;;;;;;15.90;11.30;;;16.40;51.80;;;;;;5053550;28;20457;-68
2022/03/22 10:19:59;;;;;;;13.80;11.27;;;16.50;52.10;;;;;;5035585;28;20421;-70
2022/03/22 10:22:27;;;;;;;12.20;10.90;;;16.40;50.60;;;;;;5034885;28;20557;-68
2022/03/22 10:24:57;;;;;;;15.37;10.50;;;16.60;51.40;;;;;;5035176;28;20175;-69
2022/03/22 10:27:26;;;;;;;11.87;10.63;;;16.70;51.20;;;;;;5034305;28;20907;-69
2022/03/22 10:29:52;;;;;;;13.13;10.30;;;16.70;51.70;;;;;;5032430;28;20457;-69
2022/03/22 10:32:32;;;;;;;10.67;9.73;;;16.60;50.30;;;;;;5033489;28;20441;-69
2022/03/22 10:35:19;;;;;;;14.00;9.83;;;16.60;51.20;;;;;;5032313;28;20433;-69
2022/03/22 10:37:46;;;;;;;12.50;9.50;;;16.80;51.50;;;;;;5033466;28;20461;-69
2022/03/22 10:40:41;;;;;;;13.40;9.27;;;16.90;51.40;;;;;;5033376;28;20425;-69
2022/03/22 10:43:18;;;;;;;11.40;8.90;;;17.10;50.90;;;;;;5032712;28;20989;-68
2022/03/22 10:46:00;;;;;;;11.67;8.50;;;17.20;50.50;;;;;;5033494;28;20763;-69
2022/03/22 10:48:34;;;;;;;13.20;8.70;;;17.30;50.10;;;;;;5033329;28;20436;-70
2022/03/22 10:51:01;;;;;;;11.67;8.67;;;17.30;49.10;;;;;;5033179;28;20483;-68
2022/03/22 10:53:30;;;;;;;8.87;8.07;;;17.30;48.30;;;;;;5032806;28;20473;-68
2022/03/22 10:55:57;;;;;;;12.80;8.97;;;17.20;48.80;;;;;;5031963;28;20909;-68
2022/03/22 10:58:27;;;;;;;12.37;8.20;;;17.30;49.40;;;;;;5033010;28;20449;-69
2022/03/22 11:00:55;;;;;;;12.93;9.10;;;17.40;48.70;;;;;;5033191;28;20508;-69
2022/03/22 11:03:22;;;;;;;12.57;9.17;;;17.50;48.30;;;;;;5032691;28;20432;-69
2022/03/22 11:05:52;;;;;;;9.20;8.17;;;17.50;47.90;;;;;;5033074;28;20413;-69
2022/03/22 11:08:23;;;;;;;9.80;8.57;;;17.60;47.90;;;;;;5032652;28;20930;-69
2022/03/22 11:10:49;;;;;;;12.33;9.27;;;17.60;47.50;;;;;;5032985;28;20413;-69
2022/03/22 11:13:15;;;;;;;9.37;8.17;;;17.50;46.80;;;;;;5032398;28;20452;-68
2022/03/22 11:15:44;;;;;;;10.30;8.83;;;17.50;47.40;;;;;;5032713;28;20781;-69
2022/03/22 11:18:11;;;;;;;11.27;10.07;;;17.60;48.10;;;;;;5031243;28;20461;-69
2022/03/22 11:20:47;;;;;;;11.97;9.80;;;17.60;47.70;;;;;;5032544;28;20417;-69
2022/03/22 11:23:12;;;;;;;10.40;9.33;;;17.70;47.00;;;;;;5032373;28;20768;-69
2022/03/22 11:25:38;;;;;;;11.53;9.27;;;17.50;47.00;;;;;;5032827;28;20424;-69
2022/03/22 11:28:12;;;;;;;10.40;9.20;;;17.40;46.70;;;;;;5032146;28;20583;-69
2022/03/22 11:30:39;;;;;;;11.20;9.30;;;17.50;47.60;;;;;;5031433;28;20186;-69
2022/03/22 11:35:57;;;;;;;11.40;10.20;;;17.60;47.40;;;;;;5032364;28;20467;-70
2022/03/22 11:38:47;;;;;;;14.03;10.00;;;17.50;46.70;;;;;;5032538;28;20453;-69
2022/03/22 11:44:18;;;;;;;11.90;10.10;;;17.40;47.40;;;;;;5032674;28;21080;-69
2022/03/22 11:46:45;;;;;;;13.80;10.23;;;17.30;46.80;;;;;;5032308;28;20413;-69
2022/03/22 11:49:13;;;;;;;14.97;10.60;;;17.30;46.30;;;;;;5032232;28;20418;-68
2022/03/22 11:51:54;;;;;;;13.60;10.70;;;17.30;47.20;;;;;;5031874;28;20512;-68
2022/03/22 11:54:21;;;;;;;11.50;9.43;;;17.30;47.20;;;;;;5032300;28;20500;-69
2022/03/22 11:56:58;;;;;;;10.30;9.30;;;17.30;47.90;;;;;;5032356;28;20453;-68
2022/03/22 11:59:24;;;;;;;16.70;9.97;;;17.40;48.30;;;;;;5032506;28;20426;-68
2022/03/22 12:02:04;;;;;;;10.47;8.90;;;17.40;47.80;;;;;;5031952;28;20417;-68
2022/03/22 12:04:38;;;;;;;13.00;9.20;;;17.50;47.80;;;;;;5032069;28;20189;-68
2022/03/22 12:07:04;;;;;;;12.33;9.60;;;17.60;47.70;;;;;;5032125;28;20942;-69
2022/03/22 12:09:30;;;;;;;9.50;8.17;;;17.60;47.50;;;;;;5031553;28;20421;-68
2022/03/22 12:11:58;;;;;;;9.80;8.37;;;17.70;47.80;;;;;;5031627;28;20754;-68
2022/03/22 12:14:28;;;;;;;10.70;9.00;;;17.60;46.60;;;;;;5032429;28;20186;-68
2022/03/22 12:16:56;;;;;;;12.17;7.63;;;17.70;47.70;;;;;;5032129;28;20449;-68
2022/03/22 12:19:33;;;;;;;8.97;6.07;;;17.80;47.40;;;;;;5031692;28;20417;-67
2022/03/22 12:22:00;;;;;;;8.20;6.17;;;17.80;46.60;;;;;;5031678;28;20405;-69
2022/03/22 12:24:30;;;;;;;9.70;6.70;;;17.80;46.10;;;;;;5032225;28;20414;-68
2022/03/22 12:26:56;;;;;;;10.73;6.43;;;17.70;45.30;;;;;;5031764;28;20413;-67
2022/03/22 12:29:22;;;;;;;9.33;6.93;;;17.70;46.00;;;;;;5031781;28;20418;-68
2022/03/22 12:31:53;;;;;;;11.57;7.60;;;17.70;46.10;;;;;;5031473;28;20421;-68
2022/03/22 12:34:19;;;;;;;12.70;8.50;;;17.70;46.50;;;;;;5031872;28;20186;-68
2022/03/22 12:36:45;;;;;;;13.90;8.03;;;17.60;46.70;;;;;;5031499;28;20413;-70
2022/03/22 12:39:11;;;;;;;13.83;7.20;;;17.70;46.80;;;;;;5031517;28;20460;-70
2022/03/22 12:41:38;;;;;;;13.80;8.43;;;17.60;46.40;;;;;;5031434;28;20418;-69
2022/03/22 12:44:06;;;;;;;9.90;8.90;;;17.60;45.80;;;;;;5035569;28;20912;-68
2022/03/22 12:46:32;;;;;;;11.20;8.20;;;17.50;44.90;;;;;;5035366;28;20524;-69
2022/03/22 12:48:58;;;;;;;12.40;8.27;;;17.60;44.90;;;;;;5033914;28;20405;-69
2022/03/22 12:51:25;;;;;;;10.10;7.97;;;17.50;45.40;;;;;;5035416;28;20499;-68
2022/03/22 12:53:51;;;;;;;12.20;8.60;;;17.50;45.30;;;;;;5035397;28;20949;-70
2022/03/22 12:56:20;;;;;;;12.07;9.43;;;17.50;45.30;;;;;;5035867;28;20493;-68
2022/03/22 12:58:46;;;;;;;11.47;7.63;;;17.50;46.10;;;;;;5036095;28;20460;-68
2022/03/22 13:01:12;;;;;;;11.03;8.30;;;17.50;45.70;;;;;;5035503;28;20414;-68
2022/03/22 13:03:38;;;;;;;13.03;8.23;;;17.50;45.40;;;;;;5034774;28;20983;-67
2022/03/22 13:06:06;;;;;;;10.30;8.03;;;17.50;45.60;;;;;;5034627;28;20211;-68
2022/03/22 13:11:27;;;;;;;9.40;8.10;;;17.40;45.20;;;;;;5035385;28;20432;-68
2022/03/22 13:16:38;;;;;;;12.50;8.40;;;17.40;44.80;;;;;;5034983;28;20416;-69